Delta Pioneer — SYIO — position and weather

sailwx.info

Track history (hours):
 
Tides and Currents Weather Stations Pressure Air Temp Water Temp Dewpoint Dewpoint Depression Visibility Wind Speed Wind Dir Waves Ship Positions

Delta Pioneer

Last reported at 2015-Jan-29 11:26 UTC. Time now 2015-Feb-01 22:48 UTC.
Position N 55°18' E 005°36'.

Length 249 m; draft 7.5 m.

Type: Tanker. MMSI: 240244000.

Date/timePositionNaut miles runAvg speedWind from/ knotsBaromVisibWave heightAir tempDewpointWater temp
2015-Jan-29 11:26N 55°18' E 005°36'6 6.7
2015-Jan-29 10:32N 55°13' E 005°36'7 6.7
2015-Jan-29 09:33N 55°06' E 005°34'9 8.8
2015-Jan-29 08:33N 54°58' E 005°29'5 4.9
2015-Jan-29 07:32N 54°53' E 005°29'7 7.3
2015-Jan-29 06:33N 54°46' E 005°27'8 7.5
2015-Jan-29 05:31N 54°38' E 005°25'16 8.1
2015-Jan-29 03:32N 54°23' E 005°16'9 9.0
2015-Jan-29 02:33N 54°15' E 005°08'9 9.3
2015-Jan-29 01:33N 54°08' E 004°58'10 9.4
2015-Jan-29 00:31N 54°01' E 004°47'116 5.8
2015-Jan-28 04:31N 52°19' E 003°16'3 3.6
2015-Jan-28 03:33N 52°16' E 003°19'4 3.6
2015-Jan-28 02:33N 52°13' E 003°23'4 3.9
2015-Jan-28 01:27N 52°10' E 003°28'6 7.0
2015-Jan-28 00:31N 52°06' E 003°37'8 7.9
2015-Jan-27 23:33N 52°04' E 003°48'4 4.4
2015-Jan-27 22:33N 52°02' E 003°55'1110.8
2015-Jan-27 21:34N 51°57' E 004°10'2 1.8
2015-Jan-27 20:31N 51°56' E 004°12'0 0.0
2015-Jan-27 19:31N 51°56' E 004°12'0 0.0
2015-Jan-27 18:31N 51°56' E 004°12'0 0.0
2015-Jan-27 17:31N 51°56' E 004°12'0 0.0
2015-Jan-27 16:31N 51°56' E 004°12'0 0.0
2015-Jan-27 15:31N 51°56' E 004°12'0 0.0
2015-Jan-27 14:31N 51°56' E 004°12'0 0.0
2015-Jan-27 13:31N 51°56' E 004°12'0 0.0
2015-Jan-27 12:31N 51°56' E 004°12'0 0.0
2015-Jan-27 11:31N 51°56' E 004°12'0 0.0
2015-Jan-27 10:31N 51°56' E 004°12'0 0.0
2015-Jan-27 09:31N 51°56' E 004°12'0 0.0
2015-Jan-27 08:31N 51°56' E 004°12'0 0.0
2015-Jan-27 07:31N 51°56' E 004°12'0 0.0
2015-Jan-27 06:31N 51°56' E 004°12'0 0.0
2015-Jan-27 05:31N 51°56' E 004°12'0 0.0
2015-Jan-27 04:31N 51°56' E 004°12'0 0.0
2015-Jan-27 03:31N 51°56' E 004°12'0 0.0
2015-Jan-27 02:31N 51°56' E 004°12'0 0.0
2015-Jan-27 01:31N 51°56' E 004°12'0 0.0
2015-Jan-27 00:31N 51°56' E 004°12'0 0.0
2015-Jan-26 23:31N 51°56' E 004°12'0 0.0
2015-Jan-26 22:31N 51°56' E 004°12'0 0.0
2015-Jan-26 21:31N 51°56' E 004°12'0 0.0
2015-Jan-26 20:31N 51°56' E 004°12'0 0.0
2015-Jan-26 19:31N 51°56' E 004°12'0 0.0
2015-Jan-26 18:31N 51°56' E 004°12'0 0.0
2015-Jan-26 17:31N 51°56' E 004°12'0 0.0
2015-Jan-26 16:33N 51°56' E 004°12'0 0.0
2015-Jan-26 15:31N 51°56' E 004°12'0 0.0
2015-Jan-26 14:31N 51°56' E 004°12'0 0.0
2015-Jan-26 13:31N 51°56' E 004°12'0 0.0
2015-Jan-26 12:31N 51°56' E 004°12'0 0.0
2015-Jan-26 11:31N 51°56' E 004°12'0 0.0
2015-Jan-26 10:31N 51°56' E 004°12'0 0.0
2015-Jan-26 09:31N 51°56' E 004°12'0 0.0
2015-Jan-26 08:34N 51°56' E 004°12'2 1.7
2015-Jan-26 07:34N 51°57' E 004°10'10 9.5
2015-Jan-26 06:33N 52°00' E 003°56'1111.1
2015-Jan-26 05:33N 52°01' E 003°38'9 8.6
2015-Jan-26 04:31N 51°59' E 003°24'7 7.1
2015-Jan-26 03:33N 52°00' E 003°12'0 0.1
2015-Jan-25 21:29N 52°00' E 003°13'0 0.0
2015-Jan-25 16:23N 52°00' E 003°13'0 0.0
2015-Jan-25 07:18N 52°01' E 003°13'0 0.0
2015-Jan-25 06:29N 52°01' E 003°13'0 0.0
2015-Jan-25 05:29N 52°01' E 003°13'0 0.0
2015-Jan-25 04:32N 52°00' E 003°13'0 0.0
2015-Jan-24 19:05N 52°00' E 003°13'0 0.1
2015-Jan-24 18:32N 52°01' E 003°13'0 0.0
2015-Jan-24 17:32N 52°01' E 003°13'0 0.0
2015-Jan-24 16:20N 52°00' E 003°13'0 0.0
2015-Jan-23 23:23N 52°00' E 003°12'0 0.1
2015-Jan-23 20:23N 52°01' E 003°13'0 0.0
2015-Jan-23 19:29N 52°01' E 003°13'0 0.0
2015-Jan-23 18:29N 52°01' E 003°13'0 0.0
2015-Jan-23 16:29N 52°01' E 003°13'0 0.1
2015-Jan-23 15:32N 52°01' E 003°13'0 0.0
2015-Jan-23 14:29N 52°01' E 003°13'0 0.2
2015-Jan-23 13:32N 52°00' E 003°13'0 0.1
2015-Jan-23 11:23N 52°00' E 003°12'0 0.0
2015-Jan-23 09:26N 52°00' E 003°12'0 0.1
2015-Jan-23 07:29N 52°01' E 003°13'0 0.1
2015-Jan-23 06:29N 52°01' E 003°13'0 0.0
2015-Jan-23 05:33N 52°01' E 003°13'0 0.0
2015-Jan-23 04:33N 52°01' E 003°13'0 0.0
2015-Jan-23 03:28N 52°01' E 003°13'0 0.0
2015-Jan-23 02:27N 52°01' E 003°13'0 0.1
2015-Jan-22 23:28N 52°00' E 003°12'0 0.0
2015-Jan-22 22:19N 52°00' E 003°12'0 0.0
2015-Jan-22 21:34N 52°00' E 003°12'0 0.0
2015-Jan-22 20:28N 52°00' E 003°12'0 0.0
2015-Jan-22 19:31N 52°00' E 003°12'0 0.1
2015-Jan-22 17:31N 52°01' E 003°13'0 0.0
2015-Jan-22 16:15N 52°01' E 003°13'0 0.1
2015-Jan-22 15:03N 52°01' E 003°13'0 0.0
2015-Jan-22 14:09N 52°01' E 003°13'0 0.1
2015-Jan-22 09:10N 52°00' E 003°12'0 0.0
2015-Jan-22 08:19N 52°00' E 003°12'0 0.0
2015-Jan-21 22:36N 52°00' E 003°12'0 0.1
2015-Jan-21 22:30N 52°00' E 003°12'0 0.0
2015-Jan-21 21:33N 52°00' E 003°12'0 0.0
2015-Jan-21 20:33N 52°00' E 003°12'0 0.0
2015-Jan-21 19:30N 52°00' E 003°12'0 0.1
2015-Jan-21 18:33N 52°01' E 003°12'0 0.1
2015-Jan-21 14:25N 52°01' E 003°13'0 0.1
2015-Jan-21 11:31N 52°00' E 003°12'0 0.0
2015-Jan-21 07:03N 52°01' E 003°12'0 0.2
2015-Jan-21 06:30N 52°01' E 003°13'0 0.0
2015-Jan-21 05:33N 52°01' E 003°13'0 0.0
2015-Jan-21 04:30N 52°01' E 003°13'  
Track history (hours):
 
Tides and Currents Weather Stations Pressure Air Temp Water Temp Dewpoint Dewpoint Depression Visibility Wind Speed Wind Dir Waves Ship Positions

Delta Pioneer

Last reported at 2015-Jan-29 11:26 UTC. Time now 2015-Feb-01 22:48 UTC.
Position N 55°18' E 005°36'.

Length 249 m; draft 7.5 m.

Type: Tanker. MMSI: 240244000.

Date/timePositionNaut miles runAvg speedWind from/ knotsBaromVisibWave heightAir tempDewpointWater temp
2015-Jan-29 11:26N 55°18' E 005°36'6 6.7
2015-Jan-29 10:32N 55°13' E 005°36'7 6.7
2015-Jan-29 09:33N 55°06' E 005°34'9 8.8
2015-Jan-29 08:33N 54°58' E 005°29'5 4.9
2015-Jan-29 07:32N 54°53' E 005°29'7 7.3
2015-Jan-29 06:33N 54°46' E 005°27'8 7.5
2015-Jan-29 05:31N 54°38' E 005°25'16 8.1
2015-Jan-29 03:32N 54°23' E 005°16'9 9.0
2015-Jan-29 02:33N 54°15' E 005°08'9 9.3
2015-Jan-29 01:33N 54°08' E 004°58'10 9.4
2015-Jan-29 00:31N 54°01' E 004°47'116 5.8
2015-Jan-28 04:31N 52°19' E 003°16'3 3.6
2015-Jan-28 03:33N 52°16' E 003°19'4 3.6
2015-Jan-28 02:33N 52°13' E 003°23'4 3.9
2015-Jan-28 01:27N 52°10' E 003°28'6 7.0
2015-Jan-28 00:31N 52°06' E 003°37'8 7.9
2015-Jan-27 23:33N 52°04' E 003°48'4 4.4
2015-Jan-27 22:33N 52°02' E 003°55'1110.8
2015-Jan-27 21:34N 51°57' E 004°10'2 1.8
2015-Jan-27 20:31N 51°56' E 004°12'0 0.0
2015-Jan-27 19:31N 51°56' E 004°12'0 0.0
2015-Jan-27 18:31N 51°56' E 004°12'0 0.0
2015-Jan-27 17:31N 51°56' E 004°12'0 0.0
2015-Jan-27 16:31N 51°56' E 004°12'0 0.0
2015-Jan-27 15:31N 51°56' E 004°12'0 0.0
2015-Jan-27 14:31N 51°56' E 004°12'0 0.0
2015-Jan-27 13:31N 51°56' E 004°12'0 0.0
2015-Jan-27 12:31N 51°56' E 004°12'0 0.0
2015-Jan-27 11:31N 51°56' E 004°12'0 0.0
2015-Jan-27 10:31N 51°56' E 004°12'0 0.0
2015-Jan-27 09:31N 51°56' E 004°12'0 0.0
2015-Jan-27 08:31N 51°56' E 004°12'0 0.0
2015-Jan-27 07:31N 51°56' E 004°12'0 0.0
2015-Jan-27 06:31N 51°56' E 004°12'0 0.0
2015-Jan-27 05:31N 51°56' E 004°12'0 0.0
2015-Jan-27 04:31N 51°56' E 004°12'0 0.0
2015-Jan-27 03:31N 51°56' E 004°12'0 0.0
2015-Jan-27 02:31N 51°56' E 004°12'0 0.0
2015-Jan-27 01:31N 51°56' E 004°12'0 0.0
2015-Jan-27 00:31N 51°56' E 004°12'0 0.0
2015-Jan-26 23:31N 51°56' E 004°12'0 0.0
2015-Jan-26 22:31N 51°56' E 004°12'0 0.0
2015-Jan-26 21:31N 51°56' E 004°12'0 0.0
2015-Jan-26 20:31N 51°56' E 004°12'0 0.0
2015-Jan-26 19:31N 51°56' E 004°12'0 0.0
2015-Jan-26 18:31N 51°56' E 004°12'0 0.0
2015-Jan-26 17:31N 51°56' E 004°12'0 0.0
2015-Jan-26 16:33N 51°56' E 004°12'0 0.0
2015-Jan-26 15:31N 51°56' E 004°12'0 0.0
2015-Jan-26 14:31N 51°56' E 004°12'0 0.0
2015-Jan-26 13:31N 51°56' E 004°12'0 0.0
2015-Jan-26 12:31N 51°56' E 004°12'0 0.0
2015-Jan-26 11:31N 51°56' E 004°12'0 0.0
2015-Jan-26 10:31N 51°56' E 004°12'0 0.0
2015-Jan-26 09:31N 51°56' E 004°12'0 0.0
2015-Jan-26 08:34N 51°56' E 004°12'2 1.7
2015-Jan-26 07:34N 51°57' E 004°10'10 9.5
2015-Jan-26 06:33N 52°00' E 003°56'1111.1
2015-Jan-26 05:33N 52°01' E 003°38'9 8.6
2015-Jan-26 04:31N 51°59' E 003°24'7 7.1
2015-Jan-26 03:33N 52°00' E 003°12'0 0.1
2015-Jan-25 21:29N 52°00' E 003°13'0 0.0
2015-Jan-25 16:23N 52°00' E 003°13'0 0.0
2015-Jan-25 07:18N 52°01' E 003°13'0 0.0
2015-Jan-25 06:29N 52°01' E 003°13'0 0.0
2015-Jan-25 05:29N 52°01' E 003°13'0 0.0
2015-Jan-25 04:32N 52°00' E 003°13'0 0.0
2015-Jan-24 19:05N 52°00' E 003°13'0 0.1
2015-Jan-24 18:32N 52°01' E 003°13'0 0.0
2015-Jan-24 17:32N 52°01' E 003°13'0 0.0
2015-Jan-24 16:20N 52°00' E 003°13'0 0.0
2015-Jan-23 23:23N 52°00' E 003°12'0 0.1
2015-Jan-23 20:23N 52°01' E 003°13'0 0.0
2015-Jan-23 19:29N 52°01' E 003°13'0 0.0
2015-Jan-23 18:29N 52°01' E 003°13'0 0.0
2015-Jan-23 16:29N 52°01' E 003°13'0 0.1
2015-Jan-23 15:32N 52°01' E 003°13'0 0.0
2015-Jan-23 14:29N 52°01' E 003°13'0 0.2
2015-Jan-23 13:32N 52°00' E 003°13'0 0.1
2015-Jan-23 11:23N 52°00' E 003°12'0 0.0
2015-Jan-23 09:26N 52°00' E 003°12'0 0.1
2015-Jan-23 07:29N 52°01' E 003°13'0 0.1
2015-Jan-23 06:29N 52°01' E 003°13'0 0.0
2015-Jan-23 05:33N 52°01' E 003°13'0 0.0
2015-Jan-23 04:33N 52°01' E 003°13'0 0.0
2015-Jan-23 03:28N 52°01' E 003°13'0 0.0
2015-Jan-23 02:27N 52°01' E 003°13'0 0.1
2015-Jan-22 23:28N 52°00' E 003°12'0 0.0
2015-Jan-22 22:19N 52°00' E 003°12'0 0.0
2015-Jan-22 21:34N 52°00' E 003°12'0 0.0
2015-Jan-22 20:28N 52°00' E 003°12'0 0.0
2015-Jan-22 19:31N 52°00' E 003°12'0 0.1
2015-Jan-22 17:31N 52°01' E 003°13'0 0.0
2015-Jan-22 16:15N 52°01' E 003°13'0 0.1
2015-Jan-22 15:03N 52°01' E 003°13'0 0.0
2015-Jan-22 14:09N 52°01' E 003°13'0 0.1
2015-Jan-22 09:10N 52°00' E 003°12'0 0.0
2015-Jan-22 08:19N 52°00' E 003°12'0 0.0
2015-Jan-21 22:36N 52°00' E 003°12'0 0.1
2015-Jan-21 22:30N 52°00' E 003°12'0 0.0
2015-Jan-21 21:33N 52°00' E 003°12'0 0.0
2015-Jan-21 20:33N 52°00' E 003°12'0 0.0
2015-Jan-21 19:30N 52°00' E 003°12'0 0.1
2015-Jan-21 18:33N 52°01' E 003°12'0 0.1
2015-Jan-21 14:25N 52°01' E 003°13'0 0.1
2015-Jan-21 11:31N 52°00' E 003°12'0 0.0
2015-Jan-21 07:03N 52°01' E 003°12'0 0.2
2015-Jan-21 06:30N 52°01' E 003°13'0 0.0
2015-Jan-21 05:33N 52°01' E 003°13'0 0.0
2015-Jan-21 04:30N 52°01' E 003°13'  

Dump ship's entire track history